Latest Weather Observations for Evans Head

IDN60801

Issued at 3:05 pm EST Friday 25 April 2014 (issued every 30 minutes, with the page automatically refreshed every 10 minutes)

About weather observations | Map of weather stations | Latest weather observations for NSW | Other Formats
Station Details ID: 058212 Name: EVANS HEAD RAAF BOMBING RANGE AWS Lat: -29.18 Lon: 153.40 Height: 62.5 m
Data from the previous 72 hours. | See also: Recent months at Evans Head
Date/Time
EST
Temp
°C
App
Temp
°C
Dew
Point
Rel
Hum
%
Delta-T
°C
Wind Press
QNH
hPa
Press
MSL
hPa
Rain
since 9 am
mm
Dir
 
Spd
km/h
Gust
km/h
Spd
kts
Gust
kts
25/03:00pm 23.0 22.8 17.5 71 3.4 ESE 15 20 8 11 1017.4 1017.2 0.0
25/02:30pm 23.1 21.4 17.1 69 3.7 ESE 22 30 12 16 1017.5 - 0.0
25/02:00pm 21.9 20.0 16.6 72 3.2 ESE 22 32 12 17 1017.8 - 0.0
25/01:30pm 23.4 20.4 18.7 75 3.0 SE 32 43 17 23 1018.1 - 0.0
25/01:00pm 25.1 24.3 19.2 70 3.8 SSE 22 32 12 17 1018.2 - 0.0
25/12:30pm 24.5 24.3 17.7 66 4.3 SSE 15 20 8 11 1018.4 - 0.0
25/12:00pm 24.9 24.5 18.1 66 4.3 S 17 22 9 12 1018.7 1018.5 0.0
25/11:30am 24.5 24.3 17.7 66 4.3 S 15 20 8 11 1019.1 - 0.0
25/11:00am 24.2 24.0 16.7 63 4.6 SSE 13 17 7 9 1019.4 - 0.0
25/10:30am 24.0 25.1 17.0 65 4.3 SE 7 13 4 7 1019.5 - 0.0
25/10:00am 23.2 22.7 17.0 68 3.8 SSE 15 17 8 9 1019.7 - 0.0
25/09:30am 23.3 24.7 17.7 71 3.5 SE 7 13 4 7 1019.5 - 0.0
25/09:00am 23.5 27.0 19.6 79 2.5 CALM 0 6 0 3 1019.2 1019.0 0.0
25/08:30am 20.7 23.1 16.9 79 2.3 CALM 0 0 0 0 1019.1 - 0.0
25/08:00am 19.5 22.2 17.8 90 1.0 CALM 0 0 0 0 1018.7 - 0.0
25/07:30am 18.4 19.8 17.9 97 0.3 W 7 11 4 6 1018.3 - 0.0
25/07:00am 17.4 18.4 16.9 97 0.3 WSW 7 9 4 5 1017.8 - 0.0
25/06:30am 16.4 16.7 16.1 98 0.2 WNW 9 11 5 6 1017.3 - 0.0
25/06:00am 16.1 16.3 15.8 98 0.2 NNW 9 11 5 6 1016.8 1016.6 0.0
25/05:30am 16.5 16.1 16.2 98 0.2 NW 13 15 7 8 1016.5 - 0.0
25/05:00am 16.1 15.9 15.8 98 0.2 NNW 11 13 6 7 1016.2 - 0.0
25/04:30am 16.5 16.9 16.2 98 0.2 NNW 9 9 5 5 1016.0 - 0.0
25/04:00am 16.8 17.3 16.5 98 0.2 NNW 9 11 5 6 1015.7 - 0.0
25/03:30am 17.2 17.8 16.9 98 0.2 NNW 9 11 5 6 1015.7 - 0.0
25/03:00am 17.6 18.8 17.3 98 0.2 NNW 7 9 4 5 1015.8 1015.6 0.0
25/02:30am 17.5 18.3 17.2 98 0.2 NNW 9 11 5 6 1015.8 - 0.0
25/02:00am 17.6 18.4 17.3 98 0.2 NNW 9 11 5 6 1015.9 - 0.0
25/01:30am 17.9 18.8 17.6 98 0.2 N 9 11 5 6 1016.1 - 0.0
25/01:00am 18.0 19.0 17.7 98 0.2 N 9 11 5 6 1016.3 - 0.0
25/12:30am 18.0 18.9 17.5 97 0.3 NNW 9 11 5 6 1016.6 - 0.0
25/12:00am 18.3 18.6 17.8 97 0.3 N 13 17 7 9 1016.3 1016.1 0.0
 
Date/Time
EST
Temp
°C
App
Temp
°C
Dew
Point
Rel
Hum
%
Delta-T
°C
Wind Press
QNH
hPa
Press
MSL
hPa
Rain
since 9 am
mm
Dir
 
Spd
km/h
Gust
km/h
Spd
kts
Gust
kts
24/11:30pm 18.6 19.0 18.1 97 0.3 N 13 17 7 9 1016.3 - 0.0
24/11:00pm 18.8 18.9 18.3 97 0.3 N 15 19 8 10 1016.4 - 0.0
24/10:30pm 18.9 19.4 18.4 97 0.3 N 13 17 7 9 1016.5 - 0.0
24/10:00pm 19.2 19.5 18.0 93 0.7 N 13 19 7 10 1016.5 - 0.0
24/09:30pm 19.2 19.4 17.7 91 0.9 N 13 17 7 9 1016.5 - 0.0
24/09:00pm 19.8 19.6 17.6 87 1.4 N 15 20 8 11 1016.4 1016.2 0.0
24/08:30pm 20.0 19.2 17.0 83 1.8 N 17 22 9 12 1016.0 - 0.0
24/08:00pm 20.3 19.6 17.3 83 1.8 N 17 24 9 13 1015.8 - 0.0
24/07:30pm 20.5 20.1 18.1 86 1.5 N 17 24 9 13 1015.5 - 0.0
24/07:00pm 20.8 20.6 18.4 86 1.5 N 17 22 9 12 1015.2 - 0.0
24/06:30pm 20.7 20.8 18.3 86 1.5 N 15 20 8 11 1015.0 - 0.0
24/06:00pm 21.0 20.7 17.4 80 2.2 NNE 15 20 8 11 1014.6 1014.4 0.0
24/05:30pm 21.4 20.9 17.0 76 2.7 NNE 15 20 8 11 1014.5 - 0.0
24/05:00pm 22.3 22.1 16.8 71 3.4 NNE 13 20 7 11 1014.1 - 0.0
24/04:30pm 23.7 22.9 17.2 67 4.0 NNE 17 22 9 12 1013.8 - 0.0
24/04:00pm 24.8 24.2 17.5 64 4.6 N 17 24 9 13 1013.6 - 0.0
24/03:30pm 25.8 25.3 17.7 61 5.1 N 17 24 9 13 1013.6 - 0.0
24/03:00pm 26.3 26.1 17.6 58 5.5 N 15 24 8 13 1013.8 1013.6 0.0
24/02:30pm 26.8 26.6 17.6 57 5.8 NNE 15 22 8 12 1013.7 - 0.0
24/02:00pm 27.2 27.9 18.8 60 5.4 NE 13 20 7 11 1013.9 - 0.0
24/01:30pm 25.9 25.4 17.0 58 5.5 NE 15 22 8 12 1014.1 - 0.0
24/01:00pm 27.2 28.4 16.8 53 6.5 NNE 6 13 3 7 1014.3 - 0.0
24/12:30pm 29.2 28.8 15.3 42 8.5 N 11 17 6 9 1014.6 - 0.0
24/12:00pm 29.1 28.7 16.3 46 8.0 NNW 13 20 7 11 1015.3 1015.1 0.0
24/11:30am 27.7 27.5 15.7 48 7.4 NW 11 17 6 9 1016.0 - 0.0
24/11:00am 27.7 26.9 16.0 49 7.2 NNW 15 22 8 12 1016.5 - 0.0
24/10:30am 27.0 26.3 16.3 52 6.6 NNW 15 22 8 12 1017.0 - 0.0
24/10:00am 26.0 26.5 17.4 59 5.4 NNW 11 19 6 10 1017.1 - 0.0
24/09:30am 25.3 26.7 17.7 62 4.8 N 7 15 4 8 1017.1 - 0.0
24/09:00am 24.4 25.6 18.3 69 3.8 NNW 9 13 5 7 1017.2 1017.0 0.0
24/08:30am 22.6 24.9 18.6 78 2.5 NNW 4 9 2 5 1016.9 - 0.0
24/08:00am 20.1 21.4 17.5 85 1.6 SW 7 11 4 6 1016.7 - 0.0
24/07:30am 19.3 22.1 18.0 92 0.8 CALM 0 2 0 1 1016.8 - 0.0
24/07:00am 17.8 19.0 17.3 97 0.3 W 7 9 4 5 1016.7 - 0.0
24/06:30am 16.2 17.0 15.9 98 0.2 N 6 7 3 4 1016.5 - 0.0
24/06:00am 15.8 16.3 15.5 98 0.2 N 7 9 4 5 1016.3 1016.1 0.0
24/05:30am 15.4 15.4 15.1 98 0.2 NNW 9 13 5 7 1016.2 - 0.0
24/05:00am 15.8 16.3 15.5 98 0.2 NNW 7 9 4 5 1016.0 - 0.0
24/04:30am 16.0 16.6 15.7 98 0.2 N 7 11 4 6 1015.6 - 0.0
24/04:00am 16.1 16.3 15.8 98 0.2 N 9 11 5 6 1015.4 - 0.0
24/03:30am 16.9 17.8 16.6 98 0.2 N 7 9 4 5 1015.5 - 0.0
24/03:00am 16.7 17.7 16.4 98 0.2 N 6 9 3 5 1015.4 1015.2 0.0
24/02:30am 16.3 16.6 16.0 98 0.2 N 9 11 5 6 1015.6 - 0.0
24/02:00am 16.3 16.6 16.0 98 0.2 N 9 11 5 6 1015.8 - 0.0
24/01:30am 16.7 16.8 16.4 98 0.2 NNW 11 13 6 7 1016.2 - 0.0
24/01:00am 17.1 16.9 16.8 98 0.2 N 13 17 7 9 1016.4 - 0.0
24/12:30am 16.9 17.0 16.4 97 0.3 NNW 11 17 6 9 1016.6 - 0.0
24/12:00am 17.5 17.4 17.0 97 0.3 N 13 19 7 10 1016.9 1016.7 0.0
 
Date/Time
EST
Temp
°C
App
Temp
°C
Dew
Point
Rel
Hum
%
Delta-T
°C
Wind Press
QNH
hPa
Press
MSL
hPa
Rain
since 9 am
mm
Dir
 
Spd
km/h
Gust
km/h
Spd
kts
Gust
kts
23/11:30pm 17.7 18.5 17.2 97 0.3 N 9 15 5 8 1017.0 - 0.0
23/11:00pm 17.9 18.0 17.4 97 0.3 N 13 17 7 9 1017.0 - 0.0
23/10:30pm 18.7 18.1 17.5 93 0.7 N 17 20 9 11 1016.9 - 0.0
23/10:00pm 18.6 18.1 17.8 95 0.5 N 17 22 9 12 1017.1 - 0.0
23/09:30pm 18.9 18.6 17.4 91 0.9 N 15 19 8 10 1017.2 - 0.0
23/09:00pm 19.1 19.1 17.2 89 1.2 N 13 20 7 11 1017.2 1017.0 0.0
23/08:30pm 19.6 19.1 17.7 89 1.2 N 17 22 9 12 1017.2 - 0.0
23/08:00pm 19.4 18.9 17.0 86 1.5 N 15 20 8 11 1017.1 - 0.0
23/07:30pm 19.7 19.1 16.7 83 1.8 N 15 20 8 11 1016.9 - 0.0
23/07:00pm 20.0 19.5 17.0 83 1.8 N 15 19 8 10 1016.8 - 0.0
23/06:30pm 20.5 20.2 16.5 78 2.4 N 13 17 7 9 1016.6 - 0.0
23/06:00pm 20.4 19.9 16.0 76 2.6 N 13 17 7 9 1016.3 1016.1 0.0
23/05:30pm 20.7 20.3 15.3 71 3.2 NNE 11 17 6 9 1016.1 - 0.0
23/05:00pm 21.7 21.2 15.8 69 3.5 NNE 13 20 7 11 1015.7 - 0.0
23/04:30pm 23.2 22.1 15.3 61 4.7 NNE 15 24 8 13 1015.5 - 0.0
23/04:00pm 24.4 24.0 15.3 57 5.5 NNE 11 19 6 10 1015.7 - 0.0
23/03:30pm 25.2 25.0 15.8 56 5.7 NNE 11 19 6 10 1015.9 - 0.0
23/03:00pm 25.9 25.4 15.9 54 6.1 NE 13 20 7 11 1015.9 1015.7 0.0
23/02:30pm 26.3 26.1 15.7 52 6.5 NE 11 19 6 10 1016.0 - 0.0
23/02:00pm 24.9 23.2 14.7 53 6.1 ENE 17 24 9 13 1016.0 - 0.0
23/01:30pm 24.8 23.8 15.7 57 5.5 E 15 20 8 11 1016.1 - 0.0
23/01:00pm 24.8 24.5 16.5 60 5.1 E 13 19 7 10 1016.3 - 0.0
23/12:30pm 25.3 25.5 17.7 62 4.8 E 13 19 7 10 1016.8 - 0.0
23/12:00pm 25.0 25.0 17.2 62 4.8 ESE 13 17 7 9 1017.3 1017.1 0.0
23/11:30am 26.4 28.0 16.9 56 5.9 E 4 11 2 6 1017.8 - 0.0
23/11:00am 26.9 28.0 16.5 53 6.4 W 6 13 3 7 1018.3 - 0.0
23/10:30am 26.3 26.6 16.0 53 6.3 WNW 9 15 5 8 1018.9 - 0.0
23/10:00am 25.7 25.7 16.3 56 5.8 WNW 11 19 6 10 1019.1 - 0.0
23/09:30am 24.6 23.8 15.2 55 5.7 NW 13 22 7 12 1019.4 - 0.0
23/09:00am 23.4 23.4 15.2 60 4.9 W 9 13 5 7 1019.5 1019.3 0.0
23/08:30am 22.7 22.3 15.3 63 4.4 WNW 11 19 6 10 1019.5 - 0.0
23/08:00am 21.1 22.2 18.1 83 1.9 NNW 9 13 5 7 1019.2 - 0.0
23/07:30am 18.6 19.6 17.8 95 0.5 NNW 9 11 5 6 1019.1 - 0.0
23/07:00am 16.6 16.6 16.3 98 0.2 NNW 11 15 6 8 1019.1 - 0.0
23/06:30am 15.5 15.0 15.0 97 0.3 NNW 11 15 6 8 1019.0 - 0.0
23/06:00am 15.6 15.6 15.1 97 0.3 NNW 9 11 5 6 1018.6 1018.4 0.0
23/05:30am 15.6 15.2 15.1 97 0.3 N 11 11 6 6 1018.4 - 0.0
23/05:00am 15.7 15.3 15.2 97 0.3 N 11 15 6 8 1018.1 - 0.0
23/04:30am 15.7 15.7 15.2 97 0.3 N 9 13 5 7 1018.0 - 0.0
23/04:00am 15.8 15.8 15.3 97 0.3 N 9 11 5 6 1017.8 - 0.0
23/03:30am 16.2 16.4 15.7 97 0.3 NNW 9 11 5 6 1017.8 - 0.0
23/03:00am 16.4 16.7 15.9 97 0.3 NNW 9 11 5 6 1017.8 1017.6 0.0
23/02:30am 16.5 17.2 16.0 97 0.3 NNW 7 9 4 5 1018.0 - 0.0
23/02:00am 16.8 17.2 16.3 97 0.3 N 9 11 5 6 1018.0 - 0.0
23/01:30am 16.6 16.9 16.1 97 0.3 NNW 9 13 5 7 1018.4 - 0.0
23/01:00am 16.6 16.9 16.1 97 0.3 NNW 9 13 5 7 1018.5 - 0.0
23/12:30am 16.7 17.1 16.2 97 0.3 NNW 9 11 5 6 1018.5 - 0.0
23/12:00am 16.8 17.2 16.3 97 0.3 N 9 11 5 6 1018.6 1018.4 0.0
 
Date/Time
EST
Temp
°C
App
Temp
°C
Dew
Point
Rel
Hum
%
Delta-T
°C
Wind Press
QNH
hPa
Press
MSL
hPa
Rain
since 9 am
mm
Dir
 
Spd
km/h
Gust
km/h
Spd
kts
Gust
kts
22/11:30pm 17.0 17.1 16.5 97 0.3 N 11 13 6 7 1018.8 - 0.0
22/11:00pm 17.3 17.0 16.5 95 0.5 N 13 15 7 8 1018.9 - 0.0
22/10:30pm 17.8 17.5 16.5 92 0.8 N 13 17 7 9 1019.0 - 0.0
22/10:00pm 18.5 18.0 16.8 90 1.0 N 15 19 8 10 1018.9 - 0.0
22/09:30pm 18.8 18.6 16.6 87 1.3 N 13 20 7 11 1019.0 - 0.0
22/09:00pm 19.3 18.4 16.9 86 1.5 N 17 24 9 13 1018.9 1018.7 0.0
22/08:30pm 19.3 18.0 16.7 85 1.6 N 19 28 10 15 1018.9 - 0.0
22/08:00pm 19.7 18.6 16.3 81 2.0 N 17 22 9 12 1018.9 - 0.0
22/07:30pm 20.2 18.7 16.4 79 2.3 N 19 33 10 18 1018.7 - 0.0
22/07:00pm 20.8 19.2 16.6 77 2.5 N 20 35 11 19 1018.6 - 0.0
22/06:30pm 21.0 19.6 17.0 78 2.4 N 20 30 11 16 1018.3 - 0.0
22/06:00pm 21.1 20.0 17.3 79 2.3 N 19 28 10 15 1018.2 1018.0 0.0
22/05:30pm 21.3 20.0 16.7 75 2.8 N 19 28 10 15 1017.9 - 0.0
22/05:00pm 22.1 20.6 16.8 72 3.2 N 20 30 11 16 1017.7 - 0.0
22/04:30pm 23.0 21.1 16.8 68 3.8 N 22 30 12 16 1017.8 - 0.0
22/04:00pm 24.1 22.3 16.9 64 4.4 N 22 33 12 18 1017.8 - 0.0
22/03:30pm 24.9 23.8 17.4 63 4.7 N 19 32 10 17 1018.0 - 0.0

Other Formats:

Comma delimited format used in spreadsheet applications
http://www.bom.gov.au/fwo/IDN60801/IDN60801.94598.axf

JavaScript Object Notation format (JSON) in row-major order
http://www.bom.gov.au/fwo/IDN60801/IDN60801.94598.json